createdAt,value
2019-01-05T00:00:01.676Z,22.39
2019-01-05T00:01:10.644Z,22.36
2019-01-05T00:02:20.313Z,22.36
2019-01-05T00:03:30.432Z,22.35
2019-01-05T00:04:39.638Z,22.33
2019-01-05T00:05:49.090Z,22.35
2019-01-05T00:06:58.289Z,22.33
2019-01-05T00:08:07.256Z,22.25
2019-01-05T00:09:16.468Z,22.3
2019-01-05T00:10:25.901Z,22.28
2019-01-05T00:11:35.372Z,22.24
2019-01-05T00:12:44.811Z,22.27
2019-01-05T00:13:54.504Z,22.27
2019-01-05T00:15:03.716Z,22.25
2019-01-05T00:16:13.147Z,22.22
2019-01-05T00:17:22.704Z,22.22
2019-01-05T00:18:32.451Z,22.2
2019-01-05T00:19:41.964Z,22.22
2019-01-05T00:20:51.141Z,22.18
2019-01-05T00:22:00.080Z,22.24
2019-01-05T00:23:09.565Z,22.21
2019-01-05T00:24:18.733Z,22.22
2019-01-05T00:25:27.916Z,22.17
2019-01-05T00:26:37.368Z,22.24
2019-01-05T00:27:47.088Z,22.2
2019-01-05T00:28:56.293Z,22.14
2019-01-05T00:30:05.719Z,22.12
2019-01-05T00:31:14.916Z,22.05
2019-01-05T00:32:24.606Z,22.05
2019-01-05T00:33:33.545Z,22.05
2019-01-05T00:34:42.718Z,22.06
2019-01-05T00:35:51.905Z,22.07
2019-01-05T00:37:01.628Z,22.15
2019-01-05T00:38:10.308Z,22.09
2019-01-05T00:39:19.989Z,22.05
2019-01-05T00:40:29.452Z,22.05
2019-01-05T00:41:38.666Z,21.98
2019-01-05T00:42:48.369Z,22.02
2019-01-05T00:43:57.802Z,22
2019-01-05T00:45:07.534Z,21.99
2019-01-05T00:46:16.791Z,21.99
2019-01-05T00:47:25.727Z,21.96
2019-01-05T00:48:35.615Z,21.98
2019-01-05T00:49:45.328Z,21.94
2019-01-05T00:50:54.779Z,22.02
2019-01-05T00:52:03.980Z,21.98
2019-01-05T00:53:13.992Z,22.02
2019-01-05T00:54:23.217Z,22.02
2019-01-05T00:55:31.926Z,22.02
2019-01-05T00:56:41.143Z,21.94
2019-01-05T00:57:50.594Z,22.02
2019-01-05T00:58:59.777Z,21.98
2019-01-05T01:00:09.211Z,22.02
2019-01-05T01:01:18.143Z,21.96
2019-01-05T01:02:27.346Z,21.94
2019-01-05T01:03:36.778Z,21.94
2019-01-05T01:04:45.952Z,21.98
2019-01-05T01:05:55.364Z,21.99
2019-01-05T01:07:04.554Z,21.9
2019-01-05T01:08:14.174Z,21.94
2019-01-05T01:09:23.377Z,21.88
2019-01-05T01:10:32.336Z,21.9
2019-01-05T01:11:41.519Z,21.92
2019-01-05T01:12:50.997Z,21.82
2019-01-05T01:13:59.942Z,21.92
2019-01-05T01:15:09.662Z,21.9
2019-01-05T01:16:19.339Z,21.84
2019-01-05T01:17:28.760Z,21.88
2019-01-05T01:18:37.940Z,21.8
2019-01-05T01:19:47.390Z,21.96
2019-01-05T01:20:56.336Z,21.82
2019-01-05T01:22:05.503Z,21.9
2019-01-05T01:23:14.432Z,21.82
2019-01-05T01:24:23.602Z,21.9
2019-01-05T01:25:32.775Z,21.86
2019-01-05T01:26:42.470Z,21.82
2019-01-05T01:27:52.152Z,21.79
2019-01-05T01:29:01.328Z,21.79
2019-01-05T01:30:10.544Z,21.8
2019-01-05T01:31:19.986Z,21.82
2019-01-05T01:32:28.662Z,21.77
2019-01-05T01:33:38.110Z,21.79
2019-01-05T01:34:47.543Z,21.74
2019-01-05T01:35:56.992Z,21.79
2019-01-05T01:37:06.669Z,21.75
2019-01-05T01:38:16.119Z,21.77
2019-01-05T01:39:25.614Z,21.72
2019-01-05T01:40:34.805Z,21.75
2019-01-05T01:41:44.006Z,21.74
2019-01-05T01:42:53.459Z,21.74
2019-01-05T01:44:02.893Z,21.77
2019-01-05T01:45:12.341Z,21.74
2019-01-05T01:46:21.523Z,21.74
2019-01-05T01:47:30.458Z,21.74
2019-01-05T01:48:40.170Z,21.74
2019-01-05T01:49:49.601Z,21.68
2019-01-05T01:50:58.796Z,21.67
2019-01-05T01:52:07.733Z,21.69
2019-01-05T01:53:17.412Z,21.75
2019-01-05T01:54:26.613Z,21.74
2019-01-05T01:55:36.051Z,21.71
2019-01-05T01:56:45.285Z,21.77
2019-01-05T01:57:54.949Z,21.75
2019-01-05T01:59:03.870Z,21.75
2019-01-05T02:00:12.582Z,21.69
2019-01-05T02:01:21.499Z,21.65
2019-01-05T02:02:31.655Z,21.62
2019-01-05T02:03:41.590Z,21.67
2019-01-05T02:04:50.520Z,21.65
2019-01-05T02:06:00.206Z,21.65
2019-01-05T02:07:09.685Z,21.65
2019-01-05T02:08:19.107Z,21.68
2019-01-05T02:09:28.287Z,21.67
2019-01-05T02:10:37.732Z,21.71
2019-01-05T02:11:46.902Z,21.59
2019-01-05T02:12:56.321Z,21.65
2019-01-05T02:14:05.322Z,21.61
2019-01-05T02:15:14.517Z,21.64
2019-01-05T02:16:23.953Z,21.67
2019-01-05T02:17:33.383Z,21.64
2019-01-05T02:18:42.868Z,21.65
2019-01-05T02:19:52.282Z,21.62
2019-01-05T02:21:01.483Z,21.68
2019-01-05T02:22:10.919Z,21.61
2019-01-05T02:23:20.840Z,21.61
2019-01-05T02:24:30.039Z,21.67
2019-01-05T02:25:39.214Z,21.59
2019-01-05T02:26:48.387Z,21.52
2019-01-05T02:27:57.311Z,21.59
2019-01-05T02:29:06.495Z,21.56
2019-01-05T02:30:15.474Z,21.56
2019-01-05T02:31:25.165Z,21.54
2019-01-05T02:32:34.587Z,21.56
2019-01-05T02:33:44.288Z,21.54
2019-01-05T02:34:53.718Z,21.53
2019-01-05T02:36:03.150Z,21.59
2019-01-05T02:37:12.849Z,21.56
2019-01-05T02:38:22.821Z,21.53
2019-01-05T02:39:32.567Z,21.52
2019-01-05T02:40:42.037Z,21.53
2019-01-05T02:41:51.772Z,21.49
2019-01-05T02:43:01.451Z,21.53
2019-01-05T02:44:11.145Z,21.49
2019-01-05T02:45:20.570Z,21.47
2019-01-05T02:46:29.530Z,21.52
2019-01-05T02:47:39.475Z,21.5
2019-01-05T02:48:49.158Z,21.49
2019-01-05T02:49:58.842Z,21.49
2019-01-05T02:51:08.300Z,21.52
2019-01-05T02:52:17.271Z,21.49
2019-01-05T02:53:26.477Z,21.46
2019-01-05T02:54:35.658Z,21.4
2019-01-05T02:55:45.346Z,21.49
2019-01-05T02:56:54.782Z,21.43
2019-01-05T02:58:04.237Z,21.49
2019-01-05T02:59:13.408Z,21.42
2019-01-05T03:00:23.416Z,21.43
2019-01-05T03:01:32.595Z,21.46
2019-01-05T03:02:42.039Z,21.47
2019-01-05T03:03:51.730Z,21.42
2019-01-05T03:05:01.177Z,21.32
2019-01-05T03:06:10.622Z,21.43
2019-01-05T03:07:19.856Z,21.46
2019-01-05T03:08:28.842Z,21.37
2019-01-05T03:09:38.303Z,21.32
2019-01-05T03:10:47.750Z,21.4
2019-01-05T03:11:57.184Z,21.34
2019-01-05T03:13:06.381Z,21.31
2019-01-05T03:14:15.567Z,21.4
2019-01-05T03:15:24.755Z,21.42
2019-01-05T03:16:34.438Z,21.35
2019-01-05T03:17:43.888Z,21.32
2019-01-05T03:18:53.115Z,21.29
2019-01-05T03:20:02.802Z,21.38
2019-01-05T03:21:12.007Z,21.37
2019-01-05T03:22:21.236Z,21.34
2019-01-05T03:23:30.690Z,21.38
2019-01-05T03:24:40.131Z,21.35
2019-01-05T03:25:49.595Z,21.44
2019-01-05T03:26:59.090Z,21.35
2019-01-05T03:28:09.102Z,21.44
2019-01-05T03:29:18.303Z,21.4
2019-01-05T03:30:28.347Z,21.32
2019-01-05T03:31:40.392Z,21.4
2019-01-05T03:32:50.111Z,21.37
2019-01-05T03:33:59.802Z,21.28
2019-01-05T03:35:09.002Z,21.29
2019-01-05T03:36:18.510Z,21.34
2019-01-05T03:37:28.427Z,21.32
2019-01-05T03:38:38.115Z,21.31
2019-01-05T03:39:48.059Z,21.24
2019-01-05T03:40:57.511Z,21.28
2019-01-05T03:42:07.207Z,21.31
2019-01-05T03:43:16.144Z,21.35
2019-01-05T03:44:25.336Z,21.27
2019-01-05T03:45:35.040Z,21.24
2019-01-05T03:46:44.244Z,21.34
2019-01-05T03:47:54.182Z,21.22
2019-01-05T03:49:03.871Z,21.32
2019-01-05T03:50:13.552Z,21.27
2019-01-05T03:51:22.495Z,21.32
2019-01-05T03:52:31.210Z,21.28
2019-01-05T03:53:41.154Z,21.31
2019-01-05T03:54:50.628Z,21.31
2019-01-05T03:56:00.325Z,21.28
2019-01-05T03:57:09.770Z,21.24
2019-01-05T03:58:18.950Z,21.22
2019-01-05T03:59:28.146Z,21.27
2019-01-05T04:00:37.086Z,21.27
2019-01-05T04:01:46.016Z,21.25
2019-01-05T04:02:55.757Z,21.27
2019-01-05T04:04:04.934Z,21.25
2019-01-05T04:05:15.194Z,21.22
2019-01-05T04:06:24.389Z,21.22
2019-01-05T04:07:33.576Z,21.19
2019-01-05T04:08:43.513Z,21.19
2019-01-05T04:09:52.673Z,21.12
2019-01-05T04:11:02.108Z,21.17
2019-01-05T04:12:11.536Z,21.16
2019-01-05T04:13:20.730Z,21.19
2019-01-05T04:14:29.420Z,21.13
2019-01-05T04:15:38.830Z,21.16
2019-01-05T04:16:48.022Z,21.16
2019-01-05T04:17:57.229Z,21.1
2019-01-05T04:19:06.460Z,21.13
2019-01-05T04:20:16.401Z,21.13
2019-01-05T04:21:26.093Z,21.13
2019-01-05T04:22:35.277Z,21.14
2019-01-05T04:23:44.193Z,21.13
2019-01-05T04:24:53.626Z,21.06
2019-01-05T04:26:02.599Z,21.13
2019-01-05T04:27:12.270Z,21.14
2019-01-05T04:28:22.881Z,21.1
2019-01-05T04:29:32.579Z,21.17
2019-01-05T04:30:42.272Z,21.13
2019-01-05T04:31:51.978Z,21.03
2019-01-05T04:33:01.681Z,21.04
2019-01-05T04:34:10.916Z,21.16
2019-01-05T04:35:20.104Z,21.13
2019-01-05T04:36:29.792Z,21.03
2019-01-05T04:37:39.227Z,21.09
2019-01-05T04:38:48.921Z,21.01
2019-01-05T04:39:58.359Z,21.03
2019-01-05T04:41:07.550Z,21.1
2019-01-05T04:42:17.499Z,21.06
2019-01-05T04:43:26.700Z,21.03
2019-01-05T04:44:36.138Z,21.06
2019-01-05T04:45:45.567Z,21.01
2019-01-05T04:46:54.740Z,20.95
2019-01-05T04:48:04.162Z,21.06
2019-01-05T04:49:13.342Z,21.09
2019-01-05T04:50:22.535Z,20.97
2019-01-05T04:51:31.968Z,21.03
2019-01-05T04:52:41.141Z,20.97
2019-01-05T04:53:50.081Z,20.99
2019-01-05T04:54:59.514Z,21.01
2019-01-05T04:56:08.948Z,21.01
2019-01-05T04:57:18.648Z,20.95
2019-01-05T04:58:28.105Z,20.99
2019-01-05T04:59:37.542Z,20.95
2019-01-05T05:00:47.227Z,20.99
2019-01-05T05:01:56.921Z,20.99
2019-01-05T05:03:06.383Z,20.95
2019-01-05T05:04:15.580Z,20.95
2019-01-05T05:05:24.784Z,20.95
2019-01-05T05:06:34.229Z,20.94
2019-01-05T05:07:43.418Z,20.92
2019-01-05T05:08:52.593Z,20.97
2019-01-05T05:10:02.305Z,20.92
2019-01-05T05:11:12.005Z,20.94
2019-01-05T05:12:21.435Z,20.98
2019-01-05T05:13:30.392Z,20.98
2019-01-05T05:14:39.897Z,20.95
2019-01-05T05:15:49.079Z,20.95
2019-01-05T05:16:58.276Z,20.95
2019-01-05T05:18:08.270Z,20.99
2019-01-05T05:19:17.759Z,20.97
2019-01-05T05:20:27.189Z,20.97
2019-01-05T05:21:36.920Z,20.98
2019-01-05T05:22:46.204Z,20.92
2019-01-05T05:23:55.641Z,20.95
2019-01-05T05:25:04.854Z,20.98
2019-01-05T05:26:14.562Z,20.82
2019-01-05T05:27:24.000Z,20.92
2019-01-05T05:28:33.484Z,20.88
2019-01-05T05:29:42.921Z,20.92
2019-01-05T05:30:52.610Z,20.89
2019-01-05T05:32:02.041Z,20.87
2019-01-05T05:33:11.242Z,20.82
2019-01-05T05:34:20.164Z,20.82
2019-01-05T05:35:28.852Z,20.84
2019-01-05T05:36:38.562Z,20.91
2019-01-05T05:37:48.009Z,20.88
2019-01-05T05:38:57.678Z,20.87
2019-01-05T05:40:06.613Z,20.88
2019-01-05T05:41:15.789Z,20.88
2019-01-05T05:42:25.456Z,20.87
2019-01-05T05:43:34.892Z,20.85
2019-01-05T05:44:44.573Z,20.91
2019-01-05T05:45:54.029Z,20.87
2019-01-05T05:47:03.454Z,20.87
2019-01-05T05:48:13.403Z,20.88
2019-01-05T05:49:22.576Z,20.84
2019-01-05T05:50:31.506Z,20.85
2019-01-05T05:51:40.718Z,20.85
2019-01-05T05:52:50.408Z,20.85
2019-01-05T05:54:00.085Z,20.88
2019-01-05T05:55:09.763Z,20.77
2019-01-05T05:56:19.210Z,20.87
2019-01-05T05:57:28.635Z,20.84
2019-01-05T05:58:38.348Z,20.88
2019-01-05T05:59:47.784Z,20.76
2019-01-05T06:00:57.476Z,20.8
2019-01-05T06:02:06.946Z,20.87
2019-01-05T06:03:16.111Z,20.8
2019-01-05T06:04:25.522Z,20.82
2019-01-05T06:05:34.961Z,20.88
2019-01-05T06:06:44.409Z,20.77
2019-01-05T06:07:54.773Z,20.76
2019-01-05T06:09:04.461Z,20.8
2019-01-05T06:10:13.627Z,20.77
2019-01-05T06:11:23.316Z,20.74
2019-01-05T06:12:32.516Z,20.82
2019-01-05T06:13:41.444Z,20.85
2019-01-05T06:14:50.636Z,20.82
2019-01-05T06:16:00.348Z,20.82
2019-01-05T06:17:09.291Z,20.85
2019-01-05T06:18:18.470Z,20.84
2019-01-05T06:19:27.673Z,20.76
2019-01-05T06:20:36.617Z,20.84
2019-01-05T06:21:46.060Z,20.79
2019-01-05T06:22:54.984Z,20.89
2019-01-05T06:24:04.424Z,20.76
2019-01-05T06:25:13.858Z,20.79
2019-01-05T06:26:23.324Z,20.77
2019-01-05T06:27:32.515Z,20.77
2019-01-05T06:28:42.193Z,20.8
2019-01-05T06:29:51.390Z,20.85
2019-01-05T06:31:00.604Z,20.79
2019-01-05T06:32:10.338Z,20.69
2019-01-05T06:33:19.756Z,20.77
2019-01-05T06:34:29.206Z,20.77
2019-01-05T06:35:38.886Z,20.84
2019-01-05T06:36:48.294Z,20.74
2019-01-05T06:37:58.224Z,20.74
2019-01-05T06:39:07.426Z,20.74
2019-01-05T06:40:16.637Z,20.66
2019-01-05T06:41:25.340Z,20.69
2019-01-05T06:42:34.506Z,20.66
2019-01-05T06:43:43.705Z,20.72
2019-01-05T06:44:53.644Z,20.67
2019-01-05T06:46:02.590Z,20.72
2019-01-05T06:47:12.013Z,20.69
2019-01-05T06:48:21.701Z,20.76
2019-01-05T06:49:30.897Z,20.7
2019-01-05T06:50:39.870Z,20.76
2019-01-05T06:51:49.341Z,20.77
2019-01-05T06:52:58.544Z,20.72
2019-01-05T06:54:07.740Z,20.67
2019-01-05T06:55:17.171Z,20.72
2019-01-05T06:56:27.105Z,20.72
2019-01-05T06:57:36.535Z,20.7
2019-01-05T06:58:46.242Z,20.67
2019-01-05T06:59:55.188Z,20.64
2019-01-05T07:01:04.427Z,20.8
2019-01-05T07:02:13.612Z,20.64
2019-01-05T07:03:23.287Z,20.69
2019-01-05T07:04:32.713Z,20.72
2019-01-05T07:05:41.663Z,20.67
2019-01-05T07:06:51.393Z,20.66
2019-01-05T07:08:00.586Z,20.67
2019-01-05T07:09:09.795Z,20.67
2019-01-05T07:10:19.007Z,20.67
2019-01-05T07:11:28.236Z,20.69
2019-01-05T07:12:37.767Z,20.69
2019-01-05T07:13:47.450Z,20.72
2019-01-05T07:14:57.151Z,20.62
2019-01-05T07:16:06.614Z,20.69
2019-01-05T07:17:16.036Z,20.72
2019-01-05T07:18:25.498Z,20.69
2019-01-05T07:19:34.668Z,20.72
2019-01-05T07:20:44.106Z,20.67
2019-01-05T07:21:53.535Z,20.73
2019-01-05T07:23:02.748Z,20.72
2019-01-05T07:24:12.697Z,20.7
2019-01-05T07:25:22.389Z,20.67
2019-01-05T07:26:31.596Z,20.69
2019-01-05T07:27:40.754Z,20.72
2019-01-05T07:28:50.242Z,20.72
2019-01-05T07:29:58.912Z,20.69
2019-01-05T07:31:07.895Z,20.73
2019-01-05T07:32:17.098Z,20.7
2019-01-05T07:33:26.035Z,20.72
2019-01-05T07:34:35.576Z,20.74
2019-01-05T07:35:44.989Z,20.77
2019-01-05T07:36:54.192Z,20.69
2019-01-05T07:38:03.155Z,20.77
2019-01-05T07:39:12.658Z,20.64
2019-01-05T07:40:21.867Z,20.73
2019-01-05T07:41:31.553Z,20.64
2019-01-05T07:42:40.762Z,20.76
2019-01-05T07:43:50.445Z,20.72
2019-01-05T07:44:59.377Z,20.66
2019-01-05T07:46:09.109Z,20.7
2019-01-05T07:47:18.801Z,20.66
2019-01-05T07:48:28.019Z,20.77
2019-01-05T07:49:37.199Z,20.74
2019-01-05T07:50:46.883Z,20.69
2019-01-05T07:51:55.902Z,20.74
2019-01-05T07:53:05.616Z,20.73
2019-01-05T07:54:15.065Z,20.67
2019-01-05T07:55:24.263Z,20.64
2019-01-05T07:56:33.517Z,20.67
2019-01-05T07:57:43.219Z,20.67
2019-01-05T07:58:52.653Z,20.7
2019-01-05T08:00:01.342Z,20.7
2019-01-05T08:01:10.854Z,20.69
2019-01-05T08:02:20.095Z,20.67
2019-01-05T08:03:29.776Z,20.72
2019-01-05T08:04:39.205Z,20.67
2019-01-05T08:05:48.632Z,20.7
2019-01-05T08:06:58.065Z,20.69
2019-01-05T08:08:07.753Z,20.69
2019-01-05T08:09:17.431Z,20.69
2019-01-05T08:10:26.840Z,20.67
2019-01-05T08:11:36.282Z,20.7
2019-01-05T08:12:45.467Z,20.67
2019-01-05T08:13:54.958Z,20.69
2019-01-05T08:15:04.439Z,20.66
2019-01-05T08:16:13.895Z,20.72
2019-01-05T08:17:23.114Z,20.72
2019-01-05T08:18:32.802Z,20.72
2019-01-05T08:19:42.028Z,20.7
2019-01-05T08:20:51.767Z,20.7
2019-01-05T08:22:01.209Z,20.7
2019-01-05T08:23:10.405Z,20.72
2019-01-05T08:24:20.070Z,20.7
2019-01-05T08:25:29.254Z,20.59
2019-01-05T08:26:38.925Z,20.66
2019-01-05T08:27:48.358Z,20.69
2019-01-05T08:28:57.834Z,20.67
2019-01-05T08:30:07.921Z,20.66
2019-01-05T08:31:17.869Z,20.73
2019-01-05T08:32:27.302Z,20.66
2019-01-05T08:33:36.726Z,20.69
2019-01-05T08:34:46.157Z,20.7
2019-01-05T08:35:55.338Z,20.67
2019-01-05T08:37:04.287Z,20.67
2019-01-05T08:38:13.517Z,20.64
2019-01-05T08:39:22.969Z,20.69
2019-01-05T08:40:32.409Z,20.67
2019-01-05T08:41:41.876Z,20.7
2019-01-05T08:42:51.331Z,20.67
2019-01-05T08:44:00.252Z,20.64
2019-01-05T08:45:09.942Z,20.66
2019-01-05T08:46:19.162Z,20.66
2019-01-05T08:47:28.346Z,20.69
2019-01-05T08:48:37.787Z,20.69
2019-01-05T08:49:46.978Z,20.59
2019-01-05T08:50:56.464Z,20.64
2019-01-05T08:52:05.960Z,20.66
2019-01-05T08:53:15.663Z,20.61
2019-01-05T08:54:24.663Z,20.69
2019-01-05T08:55:33.837Z,20.62
2019-01-05T08:56:43.308Z,20.59
2019-01-05T08:57:53.051Z,20.66
2019-01-05T08:59:02.511Z,20.64
2019-01-05T09:00:12.467Z,20.58
2019-01-05T09:01:21.713Z,20.59
2019-01-05T09:02:31.756Z,20.64
2019-01-05T09:03:41.927Z,20.62
2019-01-05T09:04:51.601Z,20.59
2019-01-05T09:06:00.808Z,20.57
2019-01-05T09:07:10.660Z,20.7
2019-01-05T09:08:19.586Z,20.55
2019-01-05T09:09:29.029Z,20.55
2019-01-05T09:10:38.271Z,20.66
2019-01-05T09:11:47.770Z,20.62
2019-01-05T09:12:57.236Z,20.67
2019-01-05T09:14:06.441Z,20.67
2019-01-05T09:15:15.654Z,20.64
2019-01-05T09:16:24.579Z,20.62
2019-01-05T09:17:33.757Z,20.66
2019-01-05T09:18:43.199Z,20.7
2019-01-05T09:19:53.212Z,20.64
2019-01-05T09:21:02.186Z,20.55
2019-01-05T09:22:11.646Z,20.55
2019-01-05T09:23:20.583Z,20.61
2019-01-05T09:24:30.369Z,20.59
2019-01-05T09:25:39.633Z,20.64
2019-01-05T09:26:49.263Z,20.62
2019-01-05T09:27:58.484Z,20.61
2019-01-05T09:29:07.935Z,20.62
2019-01-05T09:30:17.139Z,20.64
2019-01-05T09:31:26.095Z,20.69
2019-01-05T09:32:35.546Z,20.69
2019-01-05T09:33:44.729Z,20.67
2019-01-05T09:34:53.912Z,20.66
2019-01-05T09:36:03.105Z,20.66
2019-01-05T09:37:12.032Z,20.67
2019-01-05T09:38:21.256Z,20.69
2019-01-05T09:39:30.945Z,20.67
2019-01-05T09:40:40.170Z,20.64
2019-01-05T09:41:49.876Z,20.76
2019-01-05T09:42:59.312Z,20.69
2019-01-05T09:44:08.528Z,20.69
2019-01-05T09:45:17.955Z,20.69
2019-01-05T09:46:27.634Z,20.67
2019-01-05T09:47:36.828Z,20.67
2019-01-05T09:48:46.516Z,20.73
2019-01-05T09:49:56.232Z,20.67
2019-01-05T09:51:05.693Z,20.69
2019-01-05T09:52:15.125Z,20.7
2019-01-05T09:53:24.583Z,20.66
2019-01-05T09:54:33.774Z,20.69
2019-01-05T09:55:43.467Z,20.79
2019-01-05T09:56:52.640Z,20.69
2019-01-05T09:58:01.827Z,20.64
2019-01-05T09:59:11.268Z,20.72
2019-01-05T10:00:20.791Z,20.72
2019-01-05T10:01:30.524Z,20.7
2019-01-05T10:02:39.986Z,20.76
2019-01-05T10:03:49.176Z,20.76
2019-01-05T10:04:58.952Z,20.82
2019-01-05T10:06:07.907Z,20.74
2019-01-05T10:07:17.080Z,20.69
2019-01-05T10:08:26.517Z,20.73
2019-01-05T10:09:35.710Z,20.73
2019-01-05T10:10:45.388Z,20.76
2019-01-05T10:11:54.318Z,20.76
2019-01-05T10:13:04.040Z,20.79
2019-01-05T10:14:13.473Z,20.82
2019-01-05T10:15:22.478Z,20.76
2019-01-05T10:16:31.411Z,20.77
2019-01-05T10:17:40.594Z,20.69
2019-01-05T10:18:49.774Z,20.8
2019-01-05T10:19:59.217Z,20.84
2019-01-05T10:21:08.653Z,20.73
2019-01-05T10:22:18.793Z,20.69
2019-01-05T10:23:28.012Z,20.84
2019-01-05T10:24:37.465Z,20.72
2019-01-05T10:25:46.911Z,20.76
2019-01-05T10:26:56.348Z,20.64
2019-01-05T10:28:05.776Z,20.67
2019-01-05T10:29:15.262Z,20.67
2019-01-05T10:30:24.691Z,20.69
2019-01-05T10:31:33.866Z,20.69
2019-01-05T10:32:43.556Z,20.67
2019-01-05T10:33:53.237Z,20.69
2019-01-05T10:35:02.914Z,20.72
2019-01-05T10:36:12.177Z,20.66
2019-01-05T10:37:22.105Z,20.66
2019-01-05T10:38:31.791Z,20.72
2019-01-05T10:39:41.229Z,20.73
2019-01-05T10:40:50.662Z,20.66
2019-01-05T10:41:59.595Z,20.82
2019-01-05T10:43:09.035Z,20.85
2019-01-05T10:44:18.004Z,20.84
2019-01-05T10:45:27.185Z,20.95
2019-01-05T10:46:36.606Z,21.03
2019-01-05T10:47:46.269Z,21.04
2019-01-05T10:48:55.695Z,21.14
2019-01-05T10:50:05.123Z,21.21
2019-01-05T10:51:14.040Z,21.32
2019-01-05T10:52:23.531Z,21.4
2019-01-05T10:53:32.465Z,21.34
2019-01-05T10:54:41.401Z,21.44
2019-01-05T10:55:50.638Z,21.46
2019-01-05T10:56:59.824Z,21.47
2019-01-05T10:58:09.531Z,21.52
2019-01-05T10:59:19.250Z,21.52
2019-01-05T11:00:28.429Z,21.59
2019-01-05T11:01:37.426Z,21.62
2019-01-05T11:02:46.874Z,21.61
2019-01-05T11:03:56.308Z,21.68
2019-01-05T11:05:05.725Z,21.64
2019-01-05T11:06:15.440Z,21.64
2019-01-05T11:07:25.169Z,21.68
2019-01-05T11:08:34.621Z,21.69
2019-01-05T11:09:44.054Z,21.61
2019-01-05T11:10:53.740Z,21.74
2019-01-05T11:12:03.228Z,21.74
2019-01-05T11:13:12.175Z,21.77
2019-01-05T11:14:21.371Z,21.77
2019-01-05T11:15:30.317Z,21.84
2019-01-05T11:16:39.004Z,21.84
2019-01-05T11:17:48.249Z,21.75
2019-01-05T11:18:57.422Z,21.91
2019-01-05T11:20:07.648Z,21.9
2019-01-05T11:21:17.135Z,22.05
2019-01-05T11:22:26.343Z,21.98
2019-01-05T11:23:35.539Z,21.99
2019-01-05T11:24:45.499Z,22.17
2019-01-05T11:25:54.954Z,22.24
2019-01-05T11:27:04.405Z,22.22
2019-01-05T11:28:13.348Z,22.24
2019-01-05T11:29:22.319Z,22.37
2019-01-05T11:30:31.769Z,22.36
2019-01-05T11:31:40.996Z,22.47
2019-01-05T11:32:49.954Z,22.54
2019-01-05T11:33:58.949Z,22.54
2019-01-05T11:35:08.648Z,22.6
2019-01-05T11:36:17.830Z,22.57
2019-01-05T11:37:26.880Z,22.57
2019-01-05T11:38:36.335Z,22.7
2019-01-05T11:39:46.297Z,22.72
2019-01-05T11:40:55.492Z,22.68
2019-01-05T11:42:04.692Z,22.7
2019-01-05T11:43:13.894Z,22.85
2019-01-05T11:44:23.865Z,22.83
2019-01-05T11:45:33.057Z,22.91
2019-01-05T11:46:42.258Z,22.92
2019-01-05T11:47:51.696Z,22.88
2019-01-05T11:49:00.396Z,23.04
2019-01-05T11:50:10.362Z,23.04
2019-01-05T11:51:19.622Z,23.04
2019-01-05T11:52:29.571Z,23.13
2019-01-05T11:53:39.293Z,23.1
2019-01-05T11:54:48.490Z,23.09
2019-01-05T11:55:57.938Z,23.15
2019-01-05T11:57:07.672Z,23.17
2019-01-05T11:58:16.669Z,23.25
2019-01-05T11:59:26.387Z,23.19
2019-01-05T12:00:35.568Z,23.31
2019-01-05T12:01:45.330Z,23.31
2019-01-05T12:02:55.088Z,23.31
2019-01-05T12:04:04.844Z,23.31
2019-01-05T12:05:14.080Z,23.42
2019-01-05T12:06:23.562Z,23.35
2019-01-05T12:07:33.537Z,23.32
2019-01-05T12:08:42.867Z,23.43
2019-01-05T12:09:51.712Z,23.4
2019-01-05T12:11:01.467Z,23.47
2019-01-05T12:12:10.654Z,23.51
2019-01-05T12:13:20.083Z,23.51
2019-01-05T12:14:30.021Z,23.43
2019-01-05T12:15:39.542Z,23.53
2019-01-05T12:16:48.723Z,23.53
2019-01-05T12:17:58.150Z,23.55
2019-01-05T12:19:06.867Z,23.58
2019-01-05T12:20:16.554Z,23.58
2019-01-05T12:21:25.480Z,23.63
2019-01-05T12:22:34.412Z,23.53
2019-01-05T12:23:43.426Z,23.63
2019-01-05T12:24:52.608Z,23.65
2019-01-05T12:26:02.034Z,23.7
2019-01-05T12:27:11.240Z,23.68
2019-01-05T12:28:21.033Z,23.7
2019-01-05T12:29:30.210Z,23.78
2019-01-05T12:30:39.668Z,23.7
2019-01-05T12:31:48.626Z,23.8
2019-01-05T12:32:57.822Z,23.72
2019-01-05T12:34:07.007Z,23.83
2019-01-05T12:35:16.198Z,23.83
2019-01-05T12:36:25.924Z,23.79
2019-01-05T12:37:35.105Z,23.8
2019-01-05T12:38:44.554Z,23.78
2019-01-05T12:39:54.242Z,23.7
2019-01-05T12:41:02.928Z,23.85
2019-01-05T12:42:12.117Z,23.83
2019-01-05T12:43:21.547Z,23.9
2019-01-05T12:44:30.980Z,23.78
2019-01-05T12:45:40.159Z,23.88
2019-01-05T12:46:52.212Z,23.88
2019-01-05T12:48:01.409Z,23.9
2019-01-05T12:49:10.863Z,23.85
2019-01-05T12:50:19.799Z,23.93
2019-01-05T12:51:29.540Z,23.87
2019-01-05T12:52:38.771Z,23.91
2019-01-05T12:53:48.706Z,23.91
2019-01-05T12:54:59.114Z,23.83
2019-01-05T12:56:08.868Z,23.9
2019-01-05T12:57:17.555Z,23.93
2019-01-05T12:58:27.005Z,23.95
2019-01-05T12:59:35.969Z,23.9
2019-01-05T13:00:45.146Z,23.97
2019-01-05T13:01:54.075Z,23.91
2019-01-05T13:03:03.261Z,23.97
2019-01-05T13:04:12.433Z,23.91
2019-01-05T13:05:21.652Z,23.9
2019-01-05T13:06:30.592Z,23.94
2019-01-05T13:07:39.531Z,23.9
2019-01-05T13:08:49.245Z,23.91
2019-01-05T13:09:58.189Z,23.9
2019-01-05T13:11:07.870Z,24.02
2019-01-05T13:12:17.399Z,23.98
2019-01-05T13:13:26.832Z,24
2019-01-05T13:14:36.018Z,24.05
2019-01-05T13:15:45.458Z,24.03
2019-01-05T13:16:59.347Z,24.08
2019-01-05T13:18:08.991Z,24.08
2019-01-05T13:19:18.437Z,24.09
2019-01-05T13:20:27.376Z,24.1
2019-01-05T13:21:36.585Z,24.15
2019-01-05T13:22:46.284Z,24.08
2019-01-05T13:24:27.568Z,24.13
2019-01-05T13:25:37.002Z,24.1
2019-01-05T13:26:46.228Z,24.09
2019-01-05T13:27:55.670Z,24.05
2019-01-05T13:29:04.887Z,24.16
2019-01-05T13:30:14.392Z,24.09
2019-01-05T13:31:24.163Z,24.13
2019-01-05T13:32:34.548Z,24.09
2019-01-05T13:33:43.984Z,24.09
2019-01-05T13:34:53.161Z,24.21
2019-01-05T13:36:02.348Z,24.16
2019-01-05T13:37:11.556Z,24.1
2019-01-05T13:38:20.987Z,24.18
2019-01-05T13:39:30.451Z,24.08
2019-01-05T13:40:39.625Z,24.16
2019-01-05T13:41:48.811Z,24.15
2019-01-05T13:42:58.262Z,24.15
2019-01-05T13:44:06.950Z,24.1
2019-01-05T13:45:16.646Z,24.08
2019-01-05T13:46:26.318Z,24.16
2019-01-05T13:47:36.327Z,24.08
2019-01-05T13:48:45.892Z,24.08
2019-01-05T13:49:55.594Z,24.1
2019-01-05T13:51:05.266Z,24.21
2019-01-05T13:52:14.706Z,24.1
2019-01-05T13:53:23.899Z,24.13
2019-01-05T13:54:33.143Z,24.15
2019-01-05T13:55:42.094Z,24.05
2019-01-05T13:56:51.530Z,24.13
2019-01-05T13:58:01.189Z,24.1
2019-01-05T13:59:10.643Z,24.13
2019-01-05T14:00:21.353Z,24.1
2019-01-05T14:01:30.600Z,24.06
2019-01-05T14:02:40.045Z,24.1
2019-01-05T14:03:49.249Z,23.94
2019-01-05T14:04:58.699Z,24.13
2019-01-05T14:06:08.619Z,24.1
2019-01-05T14:07:17.797Z,24.1
2019-01-05T14:08:26.985Z,24.08
2019-01-05T14:09:36.215Z,24.08
2019-01-05T14:10:45.650Z,23.94
2019-01-05T14:11:56.544Z,24.1
2019-01-05T14:13:05.733Z,24.03
2019-01-05T14:14:15.423Z,24.05
2019-01-05T14:15:24.607Z,24.05
2019-01-05T14:16:34.103Z,24.02
2019-01-05T14:17:44.950Z,24.09
2019-01-05T14:18:54.135Z,24.03
2019-01-05T14:20:03.327Z,24.05
2019-01-05T14:21:18.643Z,24.09
2019-01-05T14:22:27.833Z,24.09
2019-01-05T14:23:36.771Z,24.05
2019-01-05T14:24:46.448Z,24.06
2019-01-05T14:25:56.146Z,24.06
2019-01-05T14:27:05.353Z,24.06
2019-01-05T14:28:14.560Z,24.13
2019-01-05T14:29:23.786Z,24.09
2019-01-05T14:30:33.571Z,24.08
2019-01-05T14:31:43.001Z,24.13
2019-01-05T14:32:52.463Z,24.12
2019-01-05T14:34:01.596Z,24.1
2019-01-05T14:35:11.274Z,24.16
2019-01-05T14:36:20.483Z,24.15
2019-01-05T14:37:29.927Z,24.08
2019-01-05T14:38:39.027Z,24.06
2019-01-05T14:39:48.716Z,24.02
2019-01-05T14:40:59.395Z,24.13
2019-01-05T14:42:08.629Z,24.1
2019-01-05T14:43:17.562Z,24.09
2019-01-05T14:44:27.992Z,24.13
2019-01-05T14:45:37.349Z,24.21
2019-01-05T14:46:47.896Z,24.08
2019-01-05T14:47:57.133Z,24.16
2019-01-05T14:49:08.352Z,24.15
2019-01-05T14:50:17.881Z,24.21
2019-01-05T14:51:26.817Z,24.2
2019-01-05T14:52:36.054Z,24.24
2019-01-05T14:53:45.525Z,24.25
2019-01-05T14:54:55.973Z,24.18
2019-01-05T14:56:05.660Z,24.24
2019-01-05T14:57:15.089Z,24.16